createdAt,value
2022-11-23T00:01:16.843Z,97151.34
2022-11-23T00:03:51.026Z,97149.50
2022-11-23T00:06:19.854Z,97152.19
2022-11-23T00:08:48.513Z,97143.09
2022-11-23T00:11:17.203Z,97141.44
2022-11-23T00:13:46.011Z,97138.16
2022-11-23T00:16:15.598Z,97147.84
2022-11-23T00:18:44.320Z,97149.50
2022-11-23T00:21:15.426Z,97153.22
2022-11-23T00:23:43.958Z,97149.72
2022-11-23T00:26:13.045Z,97151.34
2022-11-23T00:28:42.432Z,97147.84
2022-11-23T00:31:11.837Z,97155.09
2022-11-23T00:33:40.625Z,97153.22
2022-11-23T00:36:11.948Z,97147.84
2022-11-23T00:38:42.161Z,97155.91
2022-11-23T00:41:11.872Z,97140.63
2022-11-23T00:43:40.503Z,97145.16
2022-11-23T00:46:10.555Z,97138.97
2022-11-23T00:48:39.134Z,97147.22
2022-11-23T00:51:10.312Z,97144.34
2022-11-23T00:53:39.131Z,97140.84
2022-11-23T00:56:09.184Z,97147.03
2022-11-23T00:58:39.004Z,97142.69
2022-11-23T01:01:09.203Z,97136.47
2022-11-23T01:03:38.801Z,97145.38
2022-11-23T01:06:09.256Z,97133.78
2022-11-23T01:08:37.771Z,97133.78
2022-11-23T01:11:09.118Z,97133.78
2022-11-23T01:13:37.838Z,97139.16
2022-11-23T01:16:08.782Z,97134.63
2022-11-23T01:18:37.326Z,97141.84
2022-11-23T01:21:07.453Z,97137.31
2022-11-23T01:23:35.924Z,97137.31
2022-11-23T01:26:09.202Z,97139.16
2022-11-23T01:28:38.600Z,97133.78
2022-11-23T01:31:08.346Z,97131.09
2022-11-23T01:33:36.890Z,97135.66
2022-11-23T01:36:11.935Z,97135.66
2022-11-23T01:38:40.596Z,97130.28
2022-11-23T01:41:12.858Z,97131.09
2022-11-23T01:43:41.471Z,97135.66
2022-11-23T01:46:10.529Z,97138.53
2022-11-23T01:48:40.609Z,97141.03
2022-11-23T01:51:12.079Z,97146.41
2022-11-23T01:53:40.618Z,97141.03
2022-11-23T01:56:12.301Z,97140.19
2022-11-23T01:58:41.483Z,97142.88
2022-11-23T02:01:10.445Z,97145.53
2022-11-23T02:03:39.180Z,97152.78
2022-11-23T02:06:13.078Z,97151.78
2022-11-23T02:08:41.694Z,97151.78
2022-11-23T02:11:12.087Z,97142.03
2022-11-23T02:13:40.669Z,97145.53
2022-11-23T02:16:09.322Z,97145.53
2022-11-23T02:18:37.850Z,97148.22
2022-11-23T02:21:06.695Z,97151.97
2022-11-23T02:23:38.707Z,97145.53
2022-11-23T02:26:10.825Z,97143.91
2022-11-23T02:28:41.483Z,97143.91
2022-11-23T02:31:10.387Z,97147.59
2022-11-23T02:33:39.407Z,97154.66
2022-11-23T02:36:37.670Z,97162.72
2022-11-23T02:39:09.929Z,97155.47
2022-11-23T02:41:44.048Z,97165.41
2022-11-23T02:44:24.193Z,97162.72
2022-11-23T02:46:52.834Z,97162.72
2022-11-23T02:49:21.459Z,97166.22
2022-11-23T02:51:49.926Z,97160.03
2022-11-23T02:54:18.426Z,97160.03
2022-11-23T02:56:48.202Z,97160.03
2022-11-23T02:59:16.665Z,97156.47
2022-11-23T03:01:45.198Z,97155.66
2022-11-23T03:04:13.669Z,97150.28
2022-11-23T03:06:42.294Z,97144.09
2022-11-23T03:09:11.042Z,97140.38
2022-11-23T03:11:39.533Z,97134.16
2022-11-23T03:14:09.570Z,97138.72
2022-11-23T03:16:38.164Z,97130.66
2022-11-23T03:19:06.611Z,97142.22
2022-11-23T03:21:35.210Z,97139.53
2022-11-23T03:24:03.912Z,97136.84
2022-11-23T03:26:32.351Z,97135.00
2022-11-23T03:29:00.835Z,97130.66
2022-11-23T03:31:30.750Z,97139.53
2022-11-23T03:33:59.235Z,97135.22
2022-11-23T03:36:27.743Z,97142.44
2022-11-23T03:38:56.234Z,97135.22
2022-11-23T03:41:24.716Z,97132.53
2022-11-23T03:43:53.285Z,97128.16
2022-11-23T03:46:21.879Z,97129.84
2022-11-23T03:48:51.680Z,97124.47
2022-11-23T03:51:20.162Z,97120.13
2022-11-23T03:53:48.617Z,97127.16
2022-11-23T03:56:17.101Z,97129.03
2022-11-23T03:58:45.684Z,97140.59
2022-11-23T04:01:14.312Z,97133.34
2022-11-23T04:03:42.848Z,97124.47
2022-11-23T04:06:12.693Z,97129.03
2022-11-23T04:08:41.145Z,97131.72
2022-11-23T04:11:09.629Z,97123.66
2022-11-23T04:13:38.164Z,97121.78
2022-11-23T04:16:08.250Z,97122.81
2022-11-23T04:18:36.704Z,97130.84
2022-11-23T04:21:05.448Z,97138.91
2022-11-23T04:23:35.460Z,97135.41
2022-11-23T04:26:03.890Z,97141.59
2022-11-23T04:28:33.741Z,97132.72
2022-11-23T04:31:02.288Z,97138.91
2022-11-23T04:33:31.714Z,97135.22
2022-11-23T04:36:00.292Z,97133.53
2022-11-23T04:38:28.870Z,97138.09
2022-11-23T04:40:58.874Z,97138.91
2022-11-23T04:43:27.372Z,97135.41
2022-11-23T04:45:56.053Z,97139.78
2022-11-23T04:48:24.529Z,97143.47
2022-11-23T04:50:55.614Z,97136.22
2022-11-23T04:53:24.462Z,97138.09
2022-11-23T04:55:53.041Z,97138.91
2022-11-23T04:58:22.992Z,97138.91
2022-11-23T05:00:51.547Z,97129.22
2022-11-23T05:03:20.328Z,97126.53
2022-11-23T05:05:48.813Z,97128.16
2022-11-23T05:08:17.349Z,97137.28
2022-11-23T05:10:45.924Z,97137.28
2022-11-23T05:13:15.010Z,97136.44
2022-11-23T05:15:44.951Z,97137.28
2022-11-23T05:18:13.571Z,97135.63
2022-11-23T05:20:42.187Z,97141.00
2022-11-23T05:23:11.567Z,97137.28
2022-11-23T05:25:40.191Z,97124.88
2022-11-23T05:28:30.462Z,97127.56
2022-11-23T05:31:00.573Z,97129.22
2022-11-23T05:33:29.220Z,97130.25
2022-11-23T05:35:57.755Z,97137.47
2022-11-23T05:38:26.389Z,97135.63
2022-11-23T05:40:54.907Z,97135.63
2022-11-23T05:43:23.443Z,97138.31
2022-11-23T05:45:51.983Z,97137.28
2022-11-23T05:48:21.784Z,97128.41
2022-11-23T05:50:51.892Z,97131.91
2022-11-23T05:53:20.303Z,97132.94
2022-11-23T05:55:48.855Z,97134.59
2022-11-23T05:58:17.335Z,97129.63
2022-11-23T06:00:47.064Z,97128.59
2022-11-23T06:03:15.531Z,97132.31
2022-11-23T06:05:47.879Z,97130.69
2022-11-23T06:08:16.393Z,97133.34
2022-11-23T06:10:44.976Z,97146.38
2022-11-23T06:13:13.718Z,97158.13
2022-11-23T06:15:42.418Z,97170.97
2022-11-23T06:18:11.025Z,97169.28
2022-11-23T06:20:39.673Z,97170.72
2022-11-23T06:23:09.596Z,97177.75
2022-11-23T06:25:39.453Z,97179.44
2022-11-23T06:28:07.923Z,97177.16
2022-11-23T06:30:36.382Z,97172.81
2022-11-23T06:33:05.520Z,97180.66
2022-11-23T06:35:34.067Z,97178.81
2022-11-23T06:38:02.677Z,97182.13
2022-11-23T06:40:32.555Z,97186.88
2022-11-23T06:43:01.192Z,97186.88
2022-11-23T06:45:29.939Z,97182.78
2022-11-23T06:47:58.837Z,97184.81
2022-11-23T06:50:27.331Z,97179.44
2022-11-23T06:52:57.328Z,97180.09
2022-11-23T06:55:26.084Z,97177.41
2022-11-23T06:57:57.796Z,97175.75
2022-11-23T07:00:26.515Z,97175.75
2022-11-23T07:02:55.221Z,97182.78
2022-11-23T07:05:23.936Z,97174.94
2022-11-23T07:07:52.465Z,97173.25
2022-11-23T07:10:21.200Z,97164.34
2022-11-23T07:12:49.690Z,97173.88
2022-11-23T07:15:19.722Z,97170.38
2022-11-23T07:17:48.217Z,97176.56
2022-11-23T07:20:18.096Z,97170.38
2022-11-23T07:22:46.639Z,97180.72
2022-11-23T07:25:18.475Z,97181.94
2022-11-23T07:27:47.985Z,97179.44
2022-11-23T07:30:18.974Z,97179.66
2022-11-23T07:32:47.522Z,97187.91
2022-11-23T07:35:16.023Z,97190.56
2022-11-23T07:37:44.552Z,97203.19
2022-11-23T07:40:13.471Z,97200.50
2022-11-23T07:42:45.038Z,97203.00
2022-11-23T07:45:13.968Z,97200.31
2022-11-23T07:47:43.823Z,97200.94
2022-11-23T07:50:14.149Z,97195.38
2022-11-23T07:52:45.493Z,97202.63
2022-11-23T07:55:13.950Z,97206.13
2022-11-23T07:57:46.025Z,97208.00
2022-11-23T08:00:16.352Z,97215.00
2022-11-23T08:03:11.432Z,97208.59
2022-11-23T08:05:35.827Z,97213.13
2022-11-23T08:08:05.015Z,97209.22
2022-11-23T08:10:34.987Z,97205.53
2022-11-23T08:13:07.100Z,97206.53
2022-11-23T08:15:35.661Z,97206.53
2022-11-23T08:18:05.792Z,97194.16
2022-11-23T08:20:34.515Z,97207.56
2022-11-23T08:23:02.975Z,97199.72
2022-11-23T08:25:32.105Z,97196.84
2022-11-23T08:28:01.799Z,97201.38
2022-11-23T08:30:30.893Z,97194.34
2022-11-23T08:32:59.478Z,97202.22
2022-11-23T08:35:29.467Z,97197.03
2022-11-23T08:37:57.994Z,97197.03
2022-11-23T08:40:26.821Z,97188.16
2022-11-23T08:42:56.169Z,97181.94
2022-11-23T08:45:24.829Z,97189.78
2022-11-23T08:47:55.851Z,97178.22
2022-11-23T08:50:24.429Z,97185.25
2022-11-23T08:52:57.892Z,97176.56
2022-11-23T08:55:26.727Z,97188.16
2022-11-23T08:57:56.967Z,97187.09
2022-11-23T09:00:26.305Z,97179.88
2022-11-23T09:02:54.876Z,97176.56
2022-11-23T09:05:23.401Z,97181.13
2022-11-23T09:07:52.039Z,97188.16
2022-11-23T09:10:22.029Z,97173.88
2022-11-23T09:12:50.497Z,97178.44
2022-11-23T09:15:19.317Z,97174.72
2022-11-23T09:17:47.792Z,97181.94
2022-11-23T09:20:16.997Z,97188.16
2022-11-23T09:22:45.576Z,97193.50
2022-11-23T09:25:14.124Z,97190.00
2022-11-23T09:27:43.977Z,97184.63
2022-11-23T09:30:13.980Z,97185.47
2022-11-23T09:32:42.429Z,97181.13
2022-11-23T09:35:11.266Z,97181.13
2022-11-23T09:37:39.743Z,97173.88
2022-11-23T09:40:10.765Z,97175.75
2022-11-23T09:42:58.162Z,97180.31
2022-11-23T09:45:31.891Z,97180.31
2022-11-23T09:48:20.105Z,97174.09
2022-11-23T09:50:49.627Z,97166.03
2022-11-23T09:53:21.107Z,97169.34
2022-11-23T09:55:50.790Z,97157.78
2022-11-23T09:58:22.542Z,97167.47
2022-11-23T10:00:55.205Z,97163.34
2022-11-23T10:03:25.883Z,97165.00
2022-11-23T10:06:03.339Z,97167.47
2022-11-23T10:08:44.340Z,97156.72
2022-11-23T10:11:28.220Z,97145.16
2022-11-23T10:14:06.692Z,97139.78
2022-11-23T10:16:41.015Z,97135.47
2022-11-23T10:19:15.400Z,97136.28
2022-11-23T10:21:47.980Z,97137.09
2022-11-23T10:24:20.467Z,97131.72
2022-11-23T10:26:50.661Z,97130.69
2022-11-23T10:29:26.714Z,97127.19
2022-11-23T10:31:57.209Z,97135.88
2022-11-23T10:34:39.439Z,97136.06
2022-11-23T10:37:12.029Z,97129.88
2022-11-23T10:39:40.498Z,97129.88
2022-11-23T10:42:19.288Z,97127.41
2022-11-23T10:44:49.132Z,97120.78
2022-11-23T10:47:36.432Z,97127.19
2022-11-23T10:50:12.826Z,97121.00
2022-11-23T10:52:42.071Z,97126.34
2022-11-23T10:55:12.076Z,97109.19
2022-11-23T10:57:43.903Z,97112.94
2022-11-23T11:00:19.620Z,97113.75
2022-11-23T11:02:49.265Z,97119.94
2022-11-23T11:08:20.012Z,97107.56
2022-11-23T11:10:50.537Z,97110.25
2022-11-23T11:13:31.142Z,97106.72
2022-11-23T11:16:02.867Z,97108.38
2022-11-23T11:18:33.585Z,97113.75
2022-11-23T11:21:05.480Z,97104.06
2022-11-23T11:23:34.144Z,97113.97
2022-11-23T11:26:14.912Z,97108.38
2022-11-23T11:28:44.080Z,97114.78
2022-11-23T11:31:40.361Z,97105.25
2022-11-23T11:34:18.012Z,97099.72
2022-11-23T11:36:50.178Z,97098.88
2022-11-23T11:39:24.226Z,97100.53
2022-11-23T11:41:52.712Z,97102.41
2022-11-23T11:44:22.871Z,97102.19
2022-11-23T11:46:57.931Z,97097.03
2022-11-23T11:49:28.402Z,97094.34
2022-11-23T11:52:01.319Z,97096.19
2022-11-23T11:54:36.383Z,97098.88
2022-11-23T11:57:06.951Z,97110.47
2022-11-23T11:59:43.066Z,97107.94
2022-11-23T12:02:21.671Z,97104.25
2022-11-23T12:04:57.022Z,97105.09
2022-11-23T12:07:30.772Z,97106.94
2022-11-23T12:10:06.606Z,97114.16
2022-11-23T12:12:36.704Z,97113.31
2022-11-23T12:15:26.360Z,97107.94
2022-11-23T12:18:14.337Z,97118.69
2022-11-23T12:20:49.702Z,97120.56
2022-11-23T12:23:27.720Z,97123.03
2022-11-23T12:26:09.612Z,97123.22
2022-11-23T12:28:49.102Z,97116.00
2022-11-23T12:31:22.038Z,97130.28
2022-11-23T12:34:05.279Z,97133.16
2022-11-23T12:37:05.033Z,97126.94
2022-11-23T12:39:50.833Z,97129.63
2022-11-23T12:42:21.982Z,97143.91
2022-11-23T12:44:58.563Z,97139.34
2022-11-23T12:47:36.197Z,97142.03
2022-11-23T12:50:13.486Z,97147.41
2022-11-23T12:52:56.146Z,97138.53
2022-11-23T12:55:27.074Z,97149.28
2022-11-23T12:58:00.236Z,97147.59
2022-11-23T13:00:30.925Z,97154.66
2022-11-23T13:03:38.697Z,97149.28
2022-11-23T13:06:49.953Z,97158.34
2022-11-23T13:09:43.336Z,97161.03
2022-11-23T13:12:31.560Z,97160.03
2022-11-23T13:15:11.788Z,97160.03
2022-11-23T13:17:43.422Z,97161.84
2022-11-23T13:20:26.279Z,97147.59
2022-11-23T13:22:56.581Z,97150.09
2022-11-23T13:25:28.767Z,97149.28
2022-11-23T13:28:00.308Z,97147.41
2022-11-23T13:33:35.750Z,97146.59
2022-11-23T13:36:11.479Z,97151.97
2022-11-23T13:38:45.701Z,97147.41
2022-11-23T13:42:00.631Z,97154.66
2022-11-23T13:44:31.774Z,97156.28
2022-11-23T13:47:09.010Z,97143.91
2022-11-23T13:49:42.238Z,97149.28
2022-11-23T13:52:32.378Z,97153.59
2022-11-23T13:55:16.964Z,97155.47
2022-11-23T13:57:48.595Z,97149.28
2022-11-23T14:00:49.428Z,97151.09
2022-11-23T14:04:20.130Z,97153.78
2022-11-23T14:06:51.379Z,97159.16
2022-11-23T14:09:24.665Z,97161.84
2022-11-23T14:12:03.359Z,97163.72
2022-11-23T14:14:41.948Z,97173.44
2022-11-23T14:17:59.664Z,97177.16
2022-11-23T14:21:12.691Z,97170.97
2022-11-23T14:24:19.305Z,97169.09
2022-11-23T14:27:17.480Z,97180.66
2022-11-23T14:30:08.986Z,97185.22
2022-11-23T14:32:47.905Z,97173.66
2022-11-23T14:35:27.170Z,97174.47
2022-11-23T14:38:37.432Z,97175.50
2022-11-23T14:41:08.483Z,97177.38
2022-11-23T14:43:41.180Z,97172.81
2022-11-23T14:46:16.491Z,97187.91
2022-11-23T14:48:45.099Z,97188.13
2022-11-23T14:51:15.683Z,97186.25
2022-11-23T14:53:47.257Z,97193.47
2022-11-23T14:56:29.257Z,97195.31
2022-11-23T14:59:03.094Z,97204.22
2022-11-23T15:01:31.670Z,97198.00
2022-11-23T15:04:00.946Z,97200.69
2022-11-23T15:06:32.525Z,97199.69
2022-11-23T15:09:08.501Z,97198.63
2022-11-23T15:11:38.218Z,97201.53
2022-11-23T15:14:20.215Z,97197.19
2022-11-23T15:16:49.566Z,97203.38
2022-11-23T15:19:28.299Z,97205.88
2022-11-23T15:21:56.875Z,97193.25
2022-11-23T15:24:26.275Z,97198.63
2022-11-23T15:26:55.092Z,97195.94
2022-11-23T15:29:34.450Z,97194.94
2022-11-23T15:34:52.580Z,97200.31
2022-11-23T15:37:21.180Z,97214.56
2022-11-23T15:39:49.688Z,97206.69
2022-11-23T15:42:19.460Z,97193.25
2022-11-23T15:44:51.747Z,97198.63
2022-11-23T15:47:27.557Z,97201.31
2022-11-23T15:50:01.367Z,97200.31
2022-11-23T15:52:31.204Z,97199.25
2022-11-23T15:55:08.607Z,97207.31
2022-11-23T15:57:38.068Z,97212.69
2022-11-23T16:00:10.681Z,97212.69
2022-11-23T16:02:39.271Z,97216.25
2022-11-23T16:05:14.924Z,97222.44
2022-11-23T16:07:57.540Z,97210.00
2022-11-23T16:10:26.824Z,97217.91
2022-11-23T16:12:56.336Z,97217.06
2022-11-23T16:15:43.647Z,97208.38
2022-11-23T16:18:25.697Z,97227.81
2022-11-23T16:20:56.709Z,97218.06
2022-11-23T16:23:26.784Z,97214.38
2022-11-23T16:25:58.105Z,97216.25
2022-11-23T16:28:29.816Z,97216.03
2022-11-23T16:31:00.055Z,97220.59
2022-11-23T16:33:28.836Z,97222.88
2022-11-23T16:35:57.335Z,97233.41
2022-11-23T16:38:26.608Z,97224.50
2022-11-23T16:40:56.445Z,97229.06
2022-11-23T16:43:25.129Z,97233.41
2022-11-23T16:45:53.872Z,97228.03
2022-11-23T16:48:40.786Z,97225.34
2022-11-23T16:51:14.307Z,97219.97
2022-11-23T16:54:11.883Z,97229.47
2022-11-23T16:56:33.037Z,97225.97
2022-11-23T16:59:01.676Z,97226.16
2022-11-23T17:01:31.204Z,97224.31
2022-11-23T17:04:01.217Z,97233.84
2022-11-23T17:06:29.846Z,97227.63
2022-11-23T17:09:04.700Z,97229.47
2022-11-23T17:11:36.994Z,97227.84
2022-11-23T17:14:05.694Z,97219.78
2022-11-23T17:16:35.314Z,97224.94
2022-11-23T17:19:05.307Z,97221.41
2022-11-23T17:21:33.907Z,97235.66
2022-11-23T17:24:03.083Z,97235.66
2022-11-23T17:26:34.659Z,97239.22
2022-11-23T17:29:04.350Z,97232.16
2022-11-23T17:31:33.112Z,97244.78
2022-11-23T17:34:01.776Z,97244.78
2022-11-23T17:36:31.766Z,97241.03
2022-11-23T17:39:00.804Z,97231.16
2022-11-23T17:41:30.066Z,97222.25
2022-11-23T17:44:00.069Z,97224.09
2022-11-23T17:46:31.630Z,97235.66
2022-11-23T17:49:02.479Z,97237.53
2022-11-23T17:51:32.403Z,97238.34
2022-11-23T17:54:00.920Z,97235.66
2022-11-23T17:56:29.612Z,97235.66
2022-11-23T17:58:58.122Z,97237.34
2022-11-23T18:01:26.686Z,97240.22
2022-11-23T18:03:56.441Z,97243.72
2022-11-23T18:06:40.189Z,97253.47
2022-11-23T18:09:11.936Z,97247.06
2022-11-23T18:11:41.568Z,97250.97
2022-11-23T18:14:11.757Z,97248.09
2022-11-23T18:16:40.582Z,97249.75
2022-11-23T18:19:09.058Z,97248.09
2022-11-23T18:21:39.154Z,97247.06
2022-11-23T18:24:08.954Z,97241.69
2022-11-23T18:26:37.551Z,97255.94
2022-11-23T18:29:06.539Z,97254.69
2022-11-23T18:31:35.252Z,97254.91
2022-11-23T18:34:05.037Z,97247.28
2022-11-23T18:36:33.817Z,97243.75
2022-11-23T18:39:03.721Z,97238.16
2022-11-23T18:41:32.373Z,97240.25
2022-11-23T18:44:00.963Z,97242.94
2022-11-23T18:46:32.141Z,97241.28
2022-11-23T18:49:00.850Z,97240.25
2022-11-23T18:51:29.386Z,97245.63
2022-11-23T18:53:58.736Z,97252.84
2022-11-23T18:56:28.836Z,97255.75
2022-11-23T18:58:57.403Z,97261.75
2022-11-23T19:01:26.876Z,97259.06
2022-11-23T19:03:56.643Z,97253.88
2022-11-23T19:06:25.535Z,97258.03
2022-11-23T19:08:54.778Z,97248.31
2022-11-23T19:11:24.642Z,97247.47
2022-11-23T19:13:55.841Z,97245.63
2022-11-23T19:16:25.723Z,97233.19
2022-11-23T19:18:57.947Z,97235.06
2022-11-23T19:21:28.612Z,97241.50
2022-11-23T19:23:59.941Z,97240.44
2022-11-23T19:26:29.598Z,97240.66
2022-11-23T19:28:59.882Z,97250.56
2022-11-23T19:31:30.110Z,97241.69
2022-11-23T19:34:00.793Z,97234.66
2022-11-23T19:36:31.390Z,97233.84
2022-11-23T19:39:18.563Z,97240.22
2022-11-23T19:42:07.178Z,97241.28
2022-11-23T19:44:56.883Z,97245.59
2022-11-23T19:47:25.421Z,97244.78
2022-11-23T19:49:54.359Z,97246.41
2022-11-23T19:52:23.004Z,97244.78
2022-11-23T19:54:51.500Z,97244.78
2022-11-23T19:57:20.078Z,97243.13
2022-11-23T19:59:48.861Z,97243.13
2022-11-23T20:02:25.632Z,97245.81
2022-11-23T20:04:54.283Z,97253.03
2022-11-23T20:07:22.924Z,97263.78
2022-11-23T20:09:51.510Z,97259.44
2022-11-23T20:12:21.019Z,97260.25
2022-11-23T20:14:49.592Z,97262.94
2022-11-23T20:17:19.512Z,97271.00
2022-11-23T20:19:48.163Z,97268.31
2022-11-23T20:22:16.731Z,97272.88
2022-11-23T20:24:45.347Z,97278.25
2022-11-23T20:27:13.834Z,97272.06
2022-11-23T20:29:42.467Z,97269.38
2022-11-23T20:32:12.842Z,97259.63
2022-11-23T20:34:42.802Z,97267.50
2022-11-23T20:37:11.482Z,97272.06
2022-11-23T20:39:40.051Z,97266.88
2022-11-23T20:42:09.095Z,97275.75
2022-11-23T20:44:38.196Z,97274.09
2022-11-23T20:47:07.146Z,97274.91
2022-11-23T20:49:35.697Z,97284.84
2022-11-23T20:52:06.055Z,97280.28
2022-11-23T20:54:34.731Z,97274.91
2022-11-23T20:57:03.889Z,97267.09
2022-11-23T20:59:33.019Z,97281.34
2022-11-23T21:02:01.768Z,97282.16
2022-11-23T21:04:30.368Z,97290.22
2022-11-23T21:06:59.120Z,97283.19
2022-11-23T21:09:28.962Z,97287.34
2022-11-23T21:12:15.290Z,97288.56
2022-11-23T21:14:43.813Z,97286.50
2022-11-23T21:17:12.722Z,97285.66
2022-11-23T21:19:41.270Z,97293.72
2022-11-23T21:22:11.162Z,97296.41
2022-11-23T21:24:41.173Z,97296.41
2022-11-23T21:27:12.239Z,97298.28
2022-11-23T21:29:40.917Z,97299.91
2022-11-23T21:32:14.819Z,97306.34
2022-11-23T21:34:43.635Z,97315.22
2022-11-23T21:37:12.591Z,97307.16
2022-11-23T21:39:46.581Z,97314.41
2022-11-23T21:42:18.312Z,97309.84
2022-11-23T21:44:46.853Z,97312.53
2022-11-23T21:47:16.649Z,97315.22
2022-11-23T21:49:45.259Z,97316.25
2022-11-23T21:52:13.837Z,97320.59
2022-11-23T21:54:48.834Z,97312.53
2022-11-23T21:57:19.676Z,97318.94
2022-11-23T21:59:48.162Z,97312.53
2022-11-23T22:02:16.919Z,97314.63
2022-11-23T22:04:45.649Z,97320.59
2022-11-23T22:07:14.358Z,97316.03
2022-11-23T22:09:44.361Z,97315.03
2022-11-23T22:12:13.014Z,97319.59
2022-11-23T22:14:41.973Z,97320.41
2022-11-23T22:17:10.598Z,97323.09
2022-11-23T22:19:39.253Z,97322.03
2022-11-23T22:22:08.040Z,97320.41
2022-11-23T22:24:37.056Z,97314.81
2022-11-23T22:27:07.272Z,97306.97
2022-11-23T22:29:36.030Z,97312.34
2022-11-23T22:32:04.803Z,97320.41
2022-11-23T22:34:35.728Z,97312.34
2022-11-23T22:37:10.178Z,97304.28
2022-11-23T22:39:39.544Z,97302.63
2022-11-23T22:42:09.629Z,97300.78
2022-11-23T22:44:39.565Z,97312.34
2022-11-23T22:47:08.353Z,97317.72
2022-11-23T22:49:37.112Z,97315.84
2022-11-23T22:52:06.117Z,97317.50
2022-11-23T22:54:35.096Z,97314.00
2022-11-23T22:57:03.791Z,97316.69
2022-11-23T22:59:33.922Z,97322.03
2022-11-23T23:02:02.462Z,97322.03
2022-11-23T23:04:31.580Z,97316.69
2022-11-23T23:07:00.601Z,97309.66
2022-11-23T23:09:29.330Z,97316.69
2022-11-23T23:11:58.235Z,97315.03
2022-11-23T23:14:27.043Z,97312.34
2022-11-23T23:16:57.149Z,97301.59
2022-11-23T23:19:26.156Z,97306.97
2022-11-23T23:21:54.790Z,97317.72
2022-11-23T23:24:23.429Z,97311.31
2022-11-23T23:26:51.973Z,97323.91
2022-11-23T23:29:20.973Z,97327.41
2022-11-23T23:31:49.680Z,97325.78
2022-11-23T23:34:19.687Z,97318.53
2022-11-23T23:36:49.797Z,97316.69
2022-11-23T23:39:18.379Z,97314.00
2022-11-23T23:41:46.961Z,97312.34
2022-11-23T23:44:15.502Z,97314.00
2022-11-23T23:46:44.957Z,97309.84
2022-11-23T23:49:13.633Z,97315.44
2022-11-23T23:51:47.545Z,97306.34
2022-11-23T23:54:18.911Z,97310.06
2022-11-23T23:56:47.527Z,97308.38
2022-11-23T23:59:16.335Z,97306.72
